sensor_id;sensor_type;location;lat;lon;timestamp;temperature;humidity
83553;DHT22;73510;50.866;5.420;2023-12-20T00:00:26;8.80;72.50
83553;DHT22;73510;50.866;5.420;2023-12-20T00:02:51;8.70;72.70
83553;DHT22;73510;50.866;5.420;2023-12-20T00:05:17;8.60;72.70
83553;DHT22;73510;50.866;5.420;2023-12-20T00:07:43;8.60;72.40
83553;DHT22;73510;50.866;5.420;2023-12-20T00:10:09;8.50;72.80
83553;DHT22;73510;50.866;5.420;2023-12-20T00:12:34;8.40;72.40
83553;DHT22;73510;50.866;5.420;2023-12-20T00:15:00;8.30;72.50
83553;DHT22;73510;50.866;5.420;2023-12-20T00:17:26;8.20;72.50
83553;DHT22;73510;50.866;5.420;2023-12-20T00:19:51;8.10;72.70
83553;DHT22;73510;50.866;5.420;2023-12-20T00:22:17;8.10;72.50
83553;DHT22;73510;50.866;5.420;2023-12-20T00:24:43;8.00;72.30
83553;DHT22;73510;50.866;5.420;2023-12-20T00:27:08;8.00;72.40
83553;DHT22;73510;50.866;5.420;2023-12-20T00:29:34;7.90;72.50
83553;DHT22;73510;50.866;5.420;2023-12-20T00:32:00;7.90;73.00
83553;DHT22;73510;50.866;5.420;2023-12-20T00:34:25;7.90;73.00
83553;DHT22;73510;50.866;5.420;2023-12-20T00:36:51;7.90;72.90
83553;DHT22;73510;50.866;5.420;2023-12-20T00:39:16;8.00;72.50
83553;DHT22;73510;50.866;5.420;2023-12-20T00:41:42;7.90;72.60
83553;DHT22;73510;50.866;5.420;2023-12-20T00:44:08;7.80;72.50
83553;DHT22;73510;50.866;5.420;2023-12-20T00:46:34;7.80;72.10
83553;DHT22;73510;50.866;5.420;2023-12-20T00:48:59;7.70;72.40
83553;DHT22;73510;50.866;5.420;2023-12-20T00:51:25;7.70;72.20
83553;DHT22;73510;50.866;5.420;2023-12-20T00:53:51;7.60;72.20
83553;DHT22;73510;50.866;5.420;2023-12-20T00:56:20;7.50;72.40
83553;DHT22;73510;50.866;5.420;2023-12-20T00:58:46;7.50;72.80
83553;DHT22;73510;50.866;5.420;2023-12-20T01:01:11;7.50;73.10
83553;DHT22;73510;50.866;5.420;2023-12-20T01:03:38;7.60;73.00
83553;DHT22;73510;50.866;5.420;2023-12-20T01:06:04;7.60;73.00
83553;DHT22;73510;50.866;5.420;2023-12-20T01:08:30;7.60;72.60
83553;DHT22;73510;50.866;5.420;2023-12-20T01:10:56;7.60;72.40
83553;DHT22;73510;50.866;5.420;2023-12-20T01:13:22;7.50;72.20
83553;DHT22;73510;50.866;5.420;2023-12-20T01:15:47;7.50;72.20
83553;DHT22;73510;50.866;5.420;2023-12-20T01:18:14;7.50;72.50
83553;DHT22;73510;50.866;5.420;2023-12-20T01:20:40;7.50;72.50
83553;DHT22;73510;50.866;5.420;2023-12-20T01:23:06;7.50;72.50
83553;DHT22;73510;50.866;5.420;2023-12-20T01:25:31;7.50;72.50
83553;DHT22;73510;50.866;5.420;2023-12-20T01:27:57;7.50;72.50
83553;DHT22;73510;50.866;5.420;2023-12-20T01:30:23;7.50;72.80
83553;DHT22;73510;50.866;5.420;2023-12-20T01:32:49;7.50;72.90
83553;DHT22;73510;50.866;5.420;2023-12-20T01:35:15;7.50;72.80
83553;DHT22;73510;50.866;5.420;2023-12-20T01:37:41;7.50;72.50
83553;DHT22;73510;50.866;5.420;2023-12-20T01:40:07;7.50;72.60
83553;DHT22;73510;50.866;5.420;2023-12-20T01:42:33;7.50;72.40
83553;DHT22;73510;50.866;5.420;2023-12-20T01:44:59;7.50;72.20
83553;DHT22;73510;50.866;5.420;2023-12-20T01:47:25;7.50;72.00
83553;DHT22;73510;50.866;5.420;2023-12-20T01:49:52;7.50;71.80
83553;DHT22;73510;50.866;5.420;2023-12-20T01:52:20;7.40;71.90
83553;DHT22;73510;50.866;5.420;2023-12-20T01:54:46;7.30;71.80
83553;DHT22;73510;50.866;5.420;2023-12-20T01:57:12;7.20;71.90
83553;DHT22;73510;50.866;5.420;2023-12-20T01:59:39;7.20;72.00
83553;DHT22;73510;50.866;5.420;2023-12-20T02:02:07;7.10;72.10
83553;DHT22;73510;50.866;5.420;2023-12-20T02:04:33;7.00;72.20
83553;DHT22;73510;50.866;5.420;2023-12-20T02:06:59;7.00;72.30
83553;DHT22;73510;50.866;5.420;2023-12-20T02:09:25;7.00;72.30
83553;DHT22;73510;50.866;5.420;2023-12-20T02:11:51;7.00;72.50
83553;DHT22;73510;50.866;5.420;2023-12-20T02:14:17;7.00;72.50
83553;DHT22;73510;50.866;5.420;2023-12-20T02:16:42;6.90;72.60
83553;DHT22;73510;50.866;5.420;2023-12-20T02:19:13;6.90;72.50
83553;DHT22;73510;50.866;5.420;2023-12-20T02:21:39;6.90;72.50
83553;DHT22;73510;50.866;5.420;2023-12-20T02:24:05;6.90;72.70
83553;DHT22;73510;50.866;5.420;2023-12-20T02:26:32;6.90;72.50
83553;DHT22;73510;50.866;5.420;2023-12-20T02:28:59;6.90;72.30
83553;DHT22;73510;50.866;5.420;2023-12-20T02:31:24;6.80;72.30
83553;DHT22;73510;50.866;5.420;2023-12-20T02:33:50;6.80;72.30
83553;DHT22;73510;50.866;5.420;2023-12-20T02:36:16;6.70;72.40
83553;DHT22;73510;50.866;5.420;2023-12-20T02:38:41;6.70;72.50
83553;DHT22;73510;50.866;5.420;2023-12-20T02:41:08;6.60;72.80
83553;DHT22;73510;50.866;5.420;2023-12-20T02:43:33;6.60;72.70
83553;DHT22;73510;50.866;5.420;2023-12-20T02:45:59;6.60;72.60
83553;DHT22;73510;50.866;5.420;2023-12-20T02:48:25;6.50;72.70
83553;DHT22;73510;50.866;5.420;2023-12-20T02:50:51;6.50;72.60
83553;DHT22;73510;50.866;5.420;2023-12-20T02:53:16;6.50;72.70
83553;DHT22;73510;50.866;5.420;2023-12-20T02:55:42;6.40;72.70
83553;DHT22;73510;50.866;5.420;2023-12-20T02:58:08;6.40;72.70
83553;DHT22;73510;50.866;5.420;2023-12-20T03:00:33;6.40;72.60
83553;DHT22;73510;50.866;5.420;2023-12-20T03:03:00;6.40;72.50
83553;DHT22;73510;50.866;5.420;2023-12-20T03:05:25;6.40;72.70
83553;DHT22;73510;50.866;5.420;2023-12-20T03:07:51;6.40;72.90
83553;DHT22;73510;50.866;5.420;2023-12-20T03:10:18;6.30;72.80
83553;DHT22;73510;50.866;5.420;2023-12-20T03:12:44;6.30;73.00
83553;DHT22;73510;50.866;5.420;2023-12-20T03:15:10;6.30;72.90
83553;DHT22;73510;50.866;5.420;2023-12-20T03:17:36;6.40;72.80
83553;DHT22;73510;50.866;5.420;2023-12-20T03:20:02;6.30;73.10
83553;DHT22;73510;50.866;5.420;2023-12-20T03:22:28;6.30;73.40
83553;DHT22;73510;50.866;5.420;2023-12-20T03:24:53;6.40;73.60
83553;DHT22;73510;50.866;5.420;2023-12-20T03:27:19;6.40;73.60
83553;DHT22;73510;50.866;5.420;2023-12-20T03:29:45;6.50;73.70
83553;DHT22;73510;50.866;5.420;2023-12-20T03:32:10;6.50;73.60
83553;DHT22;73510;50.866;5.420;2023-12-20T03:34:36;6.60;73.50
83553;DHT22;73510;50.866;5.420;2023-12-20T03:37:02;6.60;73.20
83553;DHT22;73510;50.866;5.420;2023-12-20T03:39:28;6.60;73.20
83553;DHT22;73510;50.866;5.420;2023-12-20T03:41:54;6.70;73.10
83553;DHT22;73510;50.866;5.420;2023-12-20T03:44:20;6.70;73.20
83553;DHT22;73510;50.866;5.420;2023-12-20T03:46:45;6.70;73.10
83553;DHT22;73510;50.866;5.420;2023-12-20T03:49:11;6.70;73.10
83553;DHT22;73510;50.866;5.420;2023-12-20T03:51:37;6.80;72.90
83553;DHT22;73510;50.866;5.420;2023-12-20T03:54:03;6.80;72.70
83553;DHT22;73510;50.866;5.420;2023-12-20T03:56:29;6.80;72.80
83553;DHT22;73510;50.866;5.420;2023-12-20T03:58:54;6.70;73.10
83553;DHT22;73510;50.866;5.420;2023-12-20T04:01:20;6.80;73.10
83553;DHT22;73510;50.866;5.420;2023-12-20T04:03:46;6.80;73.20
83553;DHT22;73510;50.866;5.420;2023-12-20T04:06:17;6.80;73.10
83553;DHT22;73510;50.866;5.420;2023-12-20T04:08:43;6.80;73.00
83553;DHT22;73510;50.866;5.420;2023-12-20T04:11:08;6.80;73.00
83553;DHT22;73510;50.866;5.420;2023-12-20T04:13:34;6.80;73.00
83553;DHT22;73510;50.866;5.420;2023-12-20T04:16:00;6.90;72.90
83553;DHT22;73510;50.866;5.420;2023-12-20T04:18:25;6.90;72.80
83553;DHT22;73510;50.866;5.420;2023-12-20T04:20:51;6.90;73.00
83553;DHT22;73510;50.866;5.420;2023-12-20T04:23:17;6.90;73.00
83553;DHT22;73510;50.866;5.420;2023-12-20T04:25:42;6.90;73.00
83553;DHT22;73510;50.866;5.420;2023-12-20T04:28:08;7.00;72.80
83553;DHT22;73510;50.866;5.420;2023-12-20T04:30:34;7.00;72.80
83553;DHT22;73510;50.866;5.420;2023-12-20T04:33:00;7.00;72.80
83553;DHT22;73510;50.866;5.420;2023-12-20T04:35:26;7.00;72.80
83553;DHT22;73510;50.866;5.420;2023-12-20T04:37:51;7.00;72.90
83553;DHT22;73510;50.866;5.420;2023-12-20T04:40:17;7.00;72.70
83553;DHT22;73510;50.866;5.420;2023-12-20T04:42:44;7.10;72.70
83553;DHT22;73510;50.866;5.420;2023-12-20T04:45:09;7.00;72.50
83553;DHT22;73510;50.866;5.420;2023-12-20T04:47:38;7.00;72.40
83553;DHT22;73510;50.866;5.420;2023-12-20T04:50:04;7.00;72.40
83553;DHT22;73510;50.866;5.420;2023-12-20T04:52:30;7.00;72.50
83553;DHT22;73510;50.866;5.420;2023-12-20T04:54:55;7.00;72.50
83553;DHT22;73510;50.866;5.420;2023-12-20T04:57:21;7.00;72.60
83553;DHT22;73510;50.866;5.420;2023-12-20T04:59:47;7.00;72.70
83553;DHT22;73510;50.866;5.420;2023-12-20T05:02:12;7.00;72.50
83553;DHT22;73510;50.866;5.420;2023-12-20T05:04:39;7.00;72.50
83553;DHT22;73510;50.866;5.420;2023-12-20T05:07:04;7.00;72.40
83553;DHT22;73510;50.866;5.420;2023-12-20T05:09:30;7.00;72.20
83553;DHT22;73510;50.866;5.420;2023-12-20T05:11:56;7.00;72.10
83553;DHT22;73510;50.866;5.420;2023-12-20T05:14:22;6.90;72.30
83553;DHT22;73510;50.866;5.420;2023-12-20T05:16:48;6.80;72.60
83553;DHT22;73510;50.866;5.420;2023-12-20T05:19:13;6.90;72.60
83553;DHT22;73510;50.866;5.420;2023-12-20T05:21:39;6.90;72.50
83553;DHT22;73510;50.866;5.420;2023-12-20T05:24:05;6.90;72.50
83553;DHT22;73510;50.866;5.420;2023-12-20T05:26:31;6.90;72.20
83553;DHT22;73510;50.866;5.420;2023-12-20T05:28:56;6.90;72.30
83553;DHT22;73510;50.866;5.420;2023-12-20T05:31:22;6.80;72.30
83553;DHT22;73510;50.866;5.420;2023-12-20T05:33:48;6.80;72.20
83553;DHT22;73510;50.866;5.420;2023-12-20T05:36:13;6.80;72.30
83553;DHT22;73510;50.866;5.420;2023-12-20T05:38:41;6.80;72.40
83553;DHT22;73510;50.866;5.420;2023-12-20T05:41:06;6.80;72.30
83553;DHT22;73510;50.866;5.420;2023-12-20T05:43:33;6.80;72.00
83553;DHT22;73510;50.866;5.420;2023-12-20T05:45:59;6.80;72.10
83553;DHT22;73510;50.866;5.420;2023-12-20T05:48:25;6.70;72.10
83553;DHT22;73510;50.866;5.420;2023-12-20T05:50:50;6.70;72.20
83553;DHT22;73510;50.866;5.420;2023-12-20T05:53:16;6.60;72.20
83553;DHT22;73510;50.866;5.420;2023-12-20T05:55:42;6.60;72.10
83553;DHT22;73510;50.866;5.420;2023-12-20T05:58:07;6.50;71.90
83553;DHT22;73510;50.866;5.420;2023-12-20T06:00:33;6.50;72.00
83553;DHT22;73510;50.866;5.420;2023-12-20T06:02:58;6.40;72.10
83553;DHT22;73510;50.866;5.420;2023-12-20T06:05:25;6.40;72.20
83553;DHT22;73510;50.866;5.420;2023-12-20T06:07:51;6.30;72.20
83553;DHT22;73510;50.866;5.420;2023-12-20T06:10:17;6.20;72.40
83553;DHT22;73510;50.866;5.420;2023-12-20T06:12:42;6.20;72.50
83553;DHT22;73510;50.866;5.420;2023-12-20T06:15:08;6.20;72.60
83553;DHT22;73510;50.866;5.420;2023-12-20T06:17:34;6.10;72.60
83553;DHT22;73510;50.866;5.420;2023-12-20T06:20:00;6.10;72.60
83553;DHT22;73510;50.866;5.420;2023-12-20T06:22:26;6.00;72.70
83553;DHT22;73510;50.866;5.420;2023-12-20T06:24:52;6.00;72.90
83553;DHT22;73510;50.866;5.420;2023-12-20T06:27:17;6.00;72.70
83553;DHT22;73510;50.866;5.420;2023-12-20T06:29:43;6.00;72.80
83553;DHT22;73510;50.866;5.420;2023-12-20T06:32:10;6.00;72.60
83553;DHT22;73510;50.866;5.420;2023-12-20T06:34:36;5.90;72.90
83553;DHT22;73510;50.866;5.420;2023-12-20T06:37:01;5.90;72.90
83553;DHT22;73510;50.866;5.420;2023-12-20T06:39:27;5.90;72.90
83553;DHT22;73510;50.866;5.420;2023-12-20T06:41:53;5.90;73.30
83553;DHT22;73510;50.866;5.420;2023-12-20T06:44:19;5.90;73.60
83553;DHT22;73510;50.866;5.420;2023-12-20T06:46:45;6.00;73.80
83553;DHT22;73510;50.866;5.420;2023-12-20T06:49:11;6.00;74.00
83553;DHT22;73510;50.866;5.420;2023-12-20T06:51:37;6.10;73.90
83553;DHT22;73510;50.866;5.420;2023-12-20T06:54:03;6.10;73.70
83553;DHT22;73510;50.866;5.420;2023-12-20T06:56:29;6.20;73.50
83553;DHT22;73510;50.866;5.420;2023-12-20T06:58:54;6.30;73.50
83553;DHT22;73510;50.866;5.420;2023-12-20T07:01:20;6.30;73.40
83553;DHT22;73510;50.866;5.420;2023-12-20T07:03:46;6.40;73.20
83553;DHT22;73510;50.866;5.420;2023-12-20T07:06:11;6.40;73.20
83553;DHT22;73510;50.866;5.420;2023-12-20T07:08:39;6.40;73.20
83553;DHT22;73510;50.866;5.420;2023-12-20T07:11:05;6.50;73.00
83553;DHT22;73510;50.866;5.420;2023-12-20T07:13:31;6.50;73.00
83553;DHT22;73510;50.866;5.420;2023-12-20T07:15:57;6.50;72.90
83553;DHT22;73510;50.866;5.420;2023-12-20T07:18:22;6.50;72.80
83553;DHT22;73510;50.866;5.420;2023-12-20T07:20:48;6.50;72.70
83553;DHT22;73510;50.866;5.420;2023-12-20T07:23:14;6.50;72.40
83553;DHT22;73510;50.866;5.420;2023-12-20T07:25:39;6.50;72.30
83553;DHT22;73510;50.866;5.420;2023-12-20T07:28:05;6.40;72.40
83553;DHT22;73510;50.866;5.420;2023-12-20T07:30:31;6.30;72.60
83553;DHT22;73510;50.866;5.420;2023-12-20T07:32:57;6.30;72.50
83553;DHT22;73510;50.866;5.420;2023-12-20T07:35:23;6.20;72.60
83553;DHT22;73510;50.866;5.420;2023-12-20T07:37:49;6.20;72.60
83553;DHT22;73510;50.866;5.420;2023-12-20T07:40:15;6.20;72.70
83553;DHT22;73510;50.866;5.420;2023-12-20T07:42:42;6.20;72.80
83553;DHT22;73510;50.866;5.420;2023-12-20T07:45:08;6.10;72.80
83553;DHT22;73510;50.866;5.420;2023-12-20T07:47:36;6.10;72.90
83553;DHT22;73510;50.866;5.420;2023-12-20T07:50:02;6.10;72.80
83553;DHT22;73510;50.866;5.420;2023-12-20T07:52:28;6.10;72.80
83553;DHT22;73510;50.866;5.420;2023-12-20T07:54:54;6.10;72.80
83553;DHT22;73510;50.866;5.420;2023-12-20T07:57:20;6.10;72.70
83553;DHT22;73510;50.866;5.420;2023-12-20T07:59:46;6.10;72.80
83553;DHT22;73510;50.866;5.420;2023-12-20T08:02:12;6.10;72.80
83553;DHT22;73510;50.866;5.420;2023-12-20T08:04:37;6.20;72.60
83553;DHT22;73510;50.866;5.420;2023-12-20T08:07:03;6.20;72.50
83553;DHT22;73510;50.866;5.420;2023-12-20T08:09:30;6.20;72.50
83553;DHT22;73510;50.866;5.420;2023-12-20T08:11:57;6.20;72.50
83553;DHT22;73510;50.866;5.420;2023-12-20T08:14:25;6.20;72.40
83553;DHT22;73510;50.866;5.420;2023-12-20T08:16:50;6.20;72.40
83553;DHT22;73510;50.866;5.420;2023-12-20T08:19:16;6.20;72.30
83553;DHT22;73510;50.866;5.420;2023-12-20T08:21:42;6.20;72.20
83553;DHT22;73510;50.866;5.420;2023-12-20T08:24:08;6.20;72.20
83553;DHT22;73510;50.866;5.420;2023-12-20T08:26:34;6.20;72.10
83553;DHT22;73510;50.866;5.420;2023-12-20T08:28:59;6.30;72.00
83553;DHT22;73510;50.866;5.420;2023-12-20T08:31:25;6.30;71.90
83553;DHT22;73510;50.866;5.420;2023-12-20T08:33:52;6.30;71.80
83553;DHT22;73510;50.866;5.420;2023-12-20T08:36:19;6.40;71.70
83553;DHT22;73510;50.866;5.420;2023-12-20T08:38:47;6.40;71.80
83553;DHT22;73510;50.866;5.420;2023-12-20T08:41:12;6.50;71.60
83553;DHT22;73510;50.866;5.420;2023-12-20T08:43:38;6.50;71.60
83553;DHT22;73510;50.866;5.420;2023-12-20T08:46:07;6.60;71.50
83553;DHT22;73510;50.866;5.420;2023-12-20T08:48:37;6.60;71.40
83553;DHT22;73510;50.866;5.420;2023-12-20T08:51:03;6.70;71.40
83553;DHT22;73510;50.866;5.420;2023-12-20T08:53:29;6.70;71.10
83553;DHT22;73510;50.866;5.420;2023-12-20T08:55:55;6.80;71.20
83553;DHT22;73510;50.866;5.420;2023-12-20T08:58:20;6.80;71.30
83553;DHT22;73510;50.866;5.420;2023-12-20T09:00:46;6.90;71.00
83553;DHT22;73510;50.866;5.420;2023-12-20T09:03:12;7.00;71.20
83553;DHT22;73510;50.866;5.420;2023-12-20T09:05:37;7.10;71.10
83553;DHT22;73510;50.866;5.420;2023-12-20T09:08:03;7.20;70.70
83553;DHT22;73510;50.866;5.420;2023-12-20T09:10:30;7.20;71.10
83553;DHT22;73510;50.866;5.420;2023-12-20T09:12:55;7.20;70.90
83553;DHT22;73510;50.866;5.420;2023-12-20T09:15:26;7.20;70.70
83553;DHT22;73510;50.866;5.420;2023-12-20T09:17:52;7.30;70.50
83553;DHT22;73510;50.866;5.420;2023-12-20T09:20:17;7.30;70.30
83553;DHT22;73510;50.866;5.420;2023-12-20T09:22:43;7.30;70.00
83553;DHT22;73510;50.866;5.420;2023-12-20T09:25:10;7.20;70.10
83553;DHT22;73510;50.866;5.420;2023-12-20T09:27:36;7.20;70.10
83553;DHT22;73510;50.866;5.420;2023-12-20T09:30:02;7.20;70.00
83553;DHT22;73510;50.866;5.420;2023-12-20T09:32:29;7.20;70.10
83553;DHT22;73510;50.866;5.420;2023-12-20T09:34:55;7.20;70.10
83553;DHT22;73510;50.866;5.420;2023-12-20T09:37:20;7.20;70.40
83553;DHT22;73510;50.866;5.420;2023-12-20T09:39:46;7.20;70.30
83553;DHT22;73510;50.866;5.420;2023-12-20T09:42:12;7.20;70.50
83553;DHT22;73510;50.866;5.420;2023-12-20T09:44:41;7.20;70.40
83553;DHT22;73510;50.866;5.420;2023-12-20T09:47:08;7.30;70.30
83553;DHT22;73510;50.866;5.420;2023-12-20T09:49:35;7.40;70.40
83553;DHT22;73510;50.866;5.420;2023-12-20T09:52:03;7.40;69.90
83553;DHT22;73510;50.866;5.420;2023-12-20T09:54:30;7.40;70.10
83553;DHT22;73510;50.866;5.420;2023-12-20T09:56:56;7.50;70.00
83553;DHT22;73510;50.866;5.420;2023-12-20T09:59:21;7.40;69.90
83553;DHT22;73510;50.866;5.420;2023-12-20T10:01:48;7.50;69.90
83553;DHT22;73510;50.866;5.420;2023-12-20T10:04:14;7.50;69.90
83553;DHT22;73510;50.866;5.420;2023-12-20T10:06:44;7.50;69.70
83553;DHT22;73510;50.866;5.420;2023-12-20T10:09:11;7.50;70.00
83553;DHT22;73510;50.866;5.420;2023-12-20T10:11:38;7.50;70.20
83553;DHT22;73510;50.866;5.420;2023-12-20T10:14:05;7.70;69.90
83553;DHT22;73510;50.866;5.420;2023-12-20T10:16:32;7.80;69.60
83553;DHT22;73510;50.866;5.420;2023-12-20T10:18:59;7.80;69.50
83553;DHT22;73510;50.866;5.420;2023-12-20T10:21:25;7.80;69.40
83553;DHT22;73510;50.866;5.420;2023-12-20T10:23:55;7.90;69.20
83553;DHT22;73510;50.866;5.420;2023-12-20T10:28:50;8.00;69.20
83553;DHT22;73510;50.866;5.420;2023-12-20T10:31:30;8.10;69.00
83553;DHT22;73510;50.866;5.420;2023-12-20T10:33:57;8.20;69.00
83553;DHT22;73510;50.866;5.420;2023-12-20T10:36:28;8.20;68.90
83553;DHT22;73510;50.866;5.420;2023-12-20T10:38:55;8.30;69.10
83553;DHT22;73510;50.866;5.420;2023-12-20T10:41:26;8.40;68.60
83553;DHT22;73510;50.866;5.420;2023-12-20T10:44:00;8.50;68.40
83553;DHT22;73510;50.866;5.420;2023-12-20T10:46:27;8.50;68.60
83553;DHT22;73510;50.866;5.420;2023-12-20T10:48:56;8.60;68.30
83553;DHT22;73510;50.866;5.420;2023-12-20T10:51:24;8.60;68.50
83553;DHT22;73510;50.866;5.420;2023-12-20T10:53:53;8.60;68.30
83553;DHT22;73510;50.866;5.420;2023-12-20T10:56:19;8.60;68.10
83553;DHT22;73510;50.866;5.420;2023-12-20T10:58:46;8.60;68.30
83553;DHT22;73510;50.866;5.420;2023-12-20T11:01:17;8.70;68.30
83553;DHT22;73510;50.866;5.420;2023-12-20T11:03:53;8.80;68.40
83553;DHT22;73510;50.866;5.420;2023-12-20T11:09:24;8.80;68.30
83553;DHT22;73510;50.866;5.420;2023-12-20T11:14:49;8.80;68.60
83553;DHT22;73510;50.866;5.420;2023-12-20T11:17:15;8.80;68.10
83553;DHT22;73510;50.866;5.420;2023-12-20T11:22:31;8.80;68.50
83553;DHT22;73510;50.866;5.420;2023-12-20T11:27:30;8.80;68.30
83553;DHT22;73510;50.866;5.420;2023-12-20T11:29:57;8.70;68.70
83553;DHT22;73510;50.866;5.420;2023-12-20T11:37:34;8.70;68.60
83553;DHT22;73510;50.866;5.420;2023-12-20T11:40:06;8.70;68.40
83553;DHT22;73510;50.866;5.420;2023-12-20T11:42:50;8.70;68.40
83553;DHT22;73510;50.866;5.420;2023-12-20T11:45:19;8.80;68.50
83553;DHT22;73510;50.866;5.420;2023-12-20T11:47:49;8.70;68.70
83553;DHT22;73510;50.866;5.420;2023-12-20T11:50:22;8.80;68.50
83553;DHT22;73510;50.866;5.420;2023-12-20T11:52:48;8.80;68.50
83553;DHT22;73510;50.866;5.420;2023-12-20T11:55:14;8.80;68.50
83553;DHT22;73510;50.866;5.420;2023-12-20T11:57:40;8.80;68.40
83553;DHT22;73510;50.866;5.420;2023-12-20T12:00:06;8.80;68.70
83553;DHT22;73510;50.866;5.420;2023-12-20T12:02:32;8.80;68.80
83553;DHT22;73510;50.866;5.420;2023-12-20T12:04:59;8.80;68.70
83553;DHT22;73510;50.866;5.420;2023-12-20T12:07:25;8.90;68.60
83553;DHT22;73510;50.866;5.420;2023-12-20T12:09:51;8.90;68.30
83553;DHT22;73510;50.866;5.420;2023-12-20T12:12:17;8.90;68.50
83553;DHT22;73510;50.866;5.420;2023-12-20T12:14:47;9.00;68.80
83553;DHT22;73510;50.866;5.420;2023-12-20T12:17:14;9.00;68.80
83553;DHT22;73510;50.866;5.420;2023-12-20T12:19:40;9.10;68.70
83553;DHT22;73510;50.866;5.420;2023-12-20T12:22:15;9.20;69.10
83553;DHT22;73510;50.866;5.420;2023-12-20T12:24:45;9.20;68.90
83553;DHT22;73510;50.866;5.420;2023-12-20T12:27:14;9.20;68.50
83553;DHT22;73510;50.866;5.420;2023-12-20T12:29:42;9.20;68.80
83553;DHT22;73510;50.866;5.420;2023-12-20T12:32:25;9.20;69.10
83553;DHT22;73510;50.866;5.420;2023-12-20T12:34:51;9.20;68.70
83553;DHT22;73510;50.866;5.420;2023-12-20T12:37:17;9.20;69.40
83553;DHT22;73510;50.866;5.420;2023-12-20T12:39:42;9.20;68.90
83553;DHT22;73510;50.866;5.420;2023-12-20T12:42:08;9.20;69.40
83553;DHT22;73510;50.866;5.420;2023-12-20T12:44:34;9.20;69.40
83553;DHT22;73510;50.866;5.420;2023-12-20T12:46:59;9.20;69.60
83553;DHT22;73510;50.866;5.420;2023-12-20T12:49:25;9.10;69.60
83553;DHT22;73510;50.866;5.420;2023-12-20T12:51:53;9.10;70.00
83553;DHT22;73510;50.866;5.420;2023-12-20T12:54:22;9.10;70.40
83553;DHT22;73510;50.866;5.420;2023-12-20T12:56:47;9.00;70.40
83553;DHT22;73510;50.866;5.420;2023-12-20T12:59:13;9.20;70.10
83553;DHT22;73510;50.866;5.420;2023-12-20T13:01:39;9.10;70.40
83553;DHT22;73510;50.866;5.420;2023-12-20T13:04:04;9.20;70.20
83553;DHT22;73510;50.866;5.420;2023-12-20T13:06:36;9.20;70.20
83553;DHT22;73510;50.866;5.420;2023-12-20T13:09:02;9.10;70.20
83553;DHT22;73510;50.866;5.420;2023-12-20T13:11:30;9.10;70.10
83553;DHT22;73510;50.866;5.420;2023-12-20T13:13:57;9.10;70.30
83553;DHT22;73510;50.866;5.420;2023-12-20T13:16:26;9.10;70.10
83553;DHT22;73510;50.866;5.420;2023-12-20T13:18:51;9.20;69.70
83553;DHT22;73510;50.866;5.420;2023-12-20T13:21:17;9.20;70.10
83553;DHT22;73510;50.866;5.420;2023-12-20T13:23:43;9.20;70.10
83553;DHT22;73510;50.866;5.420;2023-12-20T13:26:08;9.20;69.90
83553;DHT22;73510;50.866;5.420;2023-12-20T13:28:34;9.30;69.60
83553;DHT22;73510;50.866;5.420;2023-12-20T13:31:00;9.40;69.80
83553;DHT22;73510;50.866;5.420;2023-12-20T13:33:25;9.50;69.60
83553;DHT22;73510;50.866;5.420;2023-12-20T13:35:51;9.60;69.80
83553;DHT22;73510;50.866;5.420;2023-12-20T13:38:17;9.70;69.60
83553;DHT22;73510;50.866;5.420;2023-12-20T13:40:43;9.80;69.60
83553;DHT22;73510;50.866;5.420;2023-12-20T13:43:09;9.80;69.20
83553;DHT22;73510;50.866;5.420;2023-12-20T13:45:37;9.80;69.20
83553;DHT22;73510;50.866;5.420;2023-12-20T13:48:03;9.80;68.90
83553;DHT22;73510;50.866;5.420;2023-12-20T13:50:28;9.70;69.20
83553;DHT22;73510;50.866;5.420;2023-12-20T13:52:54;9.70;69.40
83553;DHT22;73510;50.866;5.420;2023-12-20T13:55:20;9.60;69.50
83553;DHT22;73510;50.866;5.420;2023-12-20T13:57:50;9.60;69.30
83553;DHT22;73510;50.866;5.420;2023-12-20T14:00:16;9.60;69.60
83553;DHT22;73510;50.866;5.420;2023-12-20T14:02:42;9.60;69.50
83553;DHT22;73510;50.866;5.420;2023-12-20T14:05:09;9.60;69.30
83553;DHT22;73510;50.866;5.420;2023-12-20T14:07:35;9.60;69.40
83553;DHT22;73510;50.866;5.420;2023-12-20T14:10:01;9.50;69.60
83553;DHT22;73510;50.866;5.420;2023-12-20T14:12:27;9.50;70.00
83553;DHT22;73510;50.866;5.420;2023-12-20T14:14:53;9.40;69.90
83553;DHT22;73510;50.866;5.420;2023-12-20T14:17:21;9.40;69.90
83553;DHT22;73510;50.866;5.420;2023-12-20T14:19:47;9.40;70.20
83553;DHT22;73510;50.866;5.420;2023-12-20T14:22:13;9.40;70.30
83553;DHT22;73510;50.866;5.420;2023-12-20T14:24:42;9.40;70.50
83553;DHT22;73510;50.866;5.420;2023-12-20T14:27:08;9.40;70.50
83553;DHT22;73510;50.866;5.420;2023-12-20T14:29:35;9.30;70.80
83553;DHT22;73510;50.866;5.420;2023-12-20T14:32:00;9.30;70.70
83553;DHT22;73510;50.866;5.420;2023-12-20T14:34:28;9.40;71.00
83553;DHT22;73510;50.866;5.420;2023-12-20T14:36:54;9.40;70.80
83553;DHT22;73510;50.866;5.420;2023-12-20T14:39:19;9.40;70.80
83553;DHT22;73510;50.866;5.420;2023-12-20T14:41:45;9.40;70.90
83553;DHT22;73510;50.866;5.420;2023-12-20T14:44:11;9.40;70.70
83553;DHT22;73510;50.866;5.420;2023-12-20T14:46:36;9.40;70.80
83553;DHT22;73510;50.866;5.420;2023-12-20T14:49:04;9.40;70.60
83553;DHT22;73510;50.866;5.420;2023-12-20T14:51:30;9.40;70.50
83553;DHT22;73510;50.866;5.420;2023-12-20T14:53:55;9.40;70.70
83553;DHT22;73510;50.866;5.420;2023-12-20T14:56:25;9.30;70.70
83553;DHT22;73510;50.866;5.420;2023-12-20T14:58:52;9.30;70.60
83553;DHT22;73510;50.866;5.420;2023-12-20T15:01:18;9.30;70.50
83553;DHT22;73510;50.866;5.420;2023-12-20T15:03:47;9.30;70.70
83553;DHT22;73510;50.866;5.420;2023-12-20T15:06:13;9.20;70.70
83553;DHT22;73510;50.866;5.420;2023-12-20T15:08:39;9.20;70.80
83553;DHT22;73510;50.866;5.420;2023-12-20T15:11:04;9.20;70.80
83553;DHT22;73510;50.866;5.420;2023-12-20T15:13:31;9.30;70.70
83553;DHT22;73510;50.866;5.420;2023-12-20T15:15:57;9.20;70.70
83553;DHT22;73510;50.866;5.420;2023-12-20T15:18:22;9.20;70.50
83553;DHT22;73510;50.866;5.420;2023-12-20T15:20:48;9.20;70.60
83553;DHT22;73510;50.866;5.420;2023-12-20T15:23:14;9.20;70.50
83553;DHT22;73510;50.866;5.420;2023-12-20T15:25:40;9.20;70.40
83553;DHT22;73510;50.866;5.420;2023-12-20T15:28:06;9.30;70.50
83553;DHT22;73510;50.866;5.420;2023-12-20T15:30:31;9.20;70.50
83553;DHT22;73510;50.866;5.420;2023-12-20T15:32:58;9.20;70.30
83553;DHT22;73510;50.866;5.420;2023-12-20T15:35:23;9.20;70.30
83553;DHT22;73510;50.866;5.420;2023-12-20T15:37:49;9.20;70.50
83553;DHT22;73510;50.866;5.420;2023-12-20T15:40:16;9.20;70.40
83553;DHT22;73510;50.866;5.420;2023-12-20T15:42:41;9.20;70.50
83553;DHT22;73510;50.866;5.420;2023-12-20T15:45:09;9.20;70.50
83553;DHT22;73510;50.866;5.420;2023-12-20T15:47:35;9.20;70.60
83553;DHT22;73510;50.866;5.420;2023-12-20T15:50:02;9.20;70.60
83553;DHT22;73510;50.866;5.420;2023-12-20T15:52:27;9.20;70.40
83553;DHT22;73510;50.866;5.420;2023-12-20T15:54:53;9.20;70.40
83553;DHT22;73510;50.866;5.420;2023-12-20T15:57:19;9.20;70.50